Gladstone Airport
YGLA : now visible

Airfield :











YOU CAN JOIN US ON...

 
LOGIN :

Register | Disclaimer

   EN    FR    IT 

 









Legend :    VFR   Marginal VFR   IFR   Intensive IFR   Very Intensive IFR
Visi :
Ceiling :
>= 8 km
>= 3000ft
5 to 8 km
1000 to 3000 ft
1500m to 5 km
500 to 1000 ft
800 to 1500m
200 to 500 ft
< 800m
< 200 ft
Symbols :   Thunderstorms  Fog  Heavy snow  Heavy precipitations  Wind > 20 kt






- Airport Elevation : 64 ft
- IATA code : GLT


YGLA - Gladstone

CURRENT METAR :
  • 021700Z AUTO 21006KT 9999 // BKN034 BKN090 OVC125 15/13 Q1014

EXPIRED METARs :
  • 021630Z AUTO 20005KT 9999 // SCT056 SCT094 OVC125 15/13 Q1014
  • 021600Z AUTO 21004KT 9999 // SCT045 BKN100 16/14 Q1015
  • 021530Z AUTO 21003KT 9999 // BKN042 BKN054 OVC115 16/14 Q1015
  • 021500Z AUTO 20004KT 9999 // OVC040 16/14 Q1016 RF00.0/005.4
  • 021430Z AUTO 19005KT 9999 // BKN040 BKN063 BKN110 16/14 Q1015
  • 020300Z AUTO 00000KT 9999 // SCT073 OVC100 18/17 Q1016

TAF TAF YGLA
Valid from the 02 at 12:00 until the 03 at 00:00 UTC


021016Z 0212/0300 20006KT 9999 -RA SCT008 BKN017 INTER 0212/0300 3000 RA BKN006
YBBB FIR / Oceania



MET'MAP, your aeronautical weather chart ! - Copyright ORBIFLY December 2007 - Disclaimer

ORBIFLY MET'MAP TEAM :

Programming & Development : Alexandra Zaïnal
Original concept : Baudouin d'Aumeries
Technical & hardware support : Manuel Goepfert
Assistance : Marc-Olivier Méhu




SOURCES & CREDITS :

   NOAA       Earth
Advisory